sensor_id;sensor_type;location;lat;lon;timestamp;P1;durP1;ratioP1;P2;durP2;ratioP2
24559;SDS011;12727;49.934;8.656;2024-03-17T00:00:29;4.78;;;2.50;;
24559;SDS011;12727;49.934;8.656;2024-03-17T00:02:55;3.45;;;2.40;;
24559;SDS011;12727;49.934;8.656;2024-03-17T00:05:21;4.60;;;2.95;;
24559;SDS011;12727;49.934;8.656;2024-03-17T00:07:47;6.47;;;3.15;;
24559;SDS011;12727;49.934;8.656;2024-03-17T00:10:13;6.07;;;2.90;;
24559;SDS011;12727;49.934;8.656;2024-03-17T00:12:40;6.53;;;3.10;;
24559;SDS011;12727;49.934;8.656;2024-03-17T00:15:06;5.93;;;2.72;;
24559;SDS011;12727;49.934;8.656;2024-03-17T00:17:32;7.50;;;3.10;;
24559;SDS011;12727;49.934;8.656;2024-03-17T00:19:59;5.13;;;3.30;;
24559;SDS011;12727;49.934;8.656;2024-03-17T00:22:29;4.25;;;2.47;;
24559;SDS011;12727;49.934;8.656;2024-03-17T00:24:55;6.57;;;2.70;;
24559;SDS011;12727;49.934;8.656;2024-03-17T00:27:21;5.03;;;2.88;;
24559;SDS011;12727;49.934;8.656;2024-03-17T00:29:46;3.78;;;2.75;;
24559;SDS011;12727;49.934;8.656;2024-03-17T00:32:12;3.78;;;2.35;;
24559;SDS011;12727;49.934;8.656;2024-03-17T00:34:39;7.30;;;3.13;;
24559;SDS011;12727;49.934;8.656;2024-03-17T00:37:05;4.40;;;2.75;;
24559;SDS011;12727;49.934;8.656;2024-03-17T00:39:30;4.80;;;2.50;;
24559;SDS011;12727;49.934;8.656;2024-03-17T00:41:57;4.72;;;2.47;;
24559;SDS011;12727;49.934;8.656;2024-03-17T00:44:22;3.97;;;2.20;;
24559;SDS011;12727;49.934;8.656;2024-03-17T00:46:48;7.05;;;2.75;;
24559;SDS011;12727;49.934;8.656;2024-03-17T00:49:14;3.83;;;2.53;;
24559;SDS011;12727;49.934;8.656;2024-03-17T00:51:39;5.65;;;2.60;;
24559;SDS011;12727;49.934;8.656;2024-03-17T00:54:05;5.07;;;2.35;;
24559;SDS011;12727;49.934;8.656;2024-03-17T00:56:30;6.90;;;2.60;;
24559;SDS011;12727;49.934;8.656;2024-03-17T00:58:56;3.75;;;2.28;;
24559;SDS011;12727;49.934;8.656;2024-03-17T01:01:22;5.35;;;2.30;;
24559;SDS011;12727;49.934;8.656;2024-03-17T01:03:47;5.88;;;2.47;;
24559;SDS011;12727;49.934;8.656;2024-03-17T01:06:13;5.18;;;2.40;;
24559;SDS011;12727;49.934;8.656;2024-03-17T01:08:39;4.00;;;2.00;;
24559;SDS011;12727;49.934;8.656;2024-03-17T01:11:05;6.30;;;2.58;;
24559;SDS011;12727;49.934;8.656;2024-03-17T01:13:36;3.85;;;2.70;;
24559;SDS011;12727;49.934;8.656;2024-03-17T01:16:06;5.82;;;2.63;;
24559;SDS011;12727;49.934;8.656;2024-03-17T01:18:32;5.90;;;2.72;;
24559;SDS011;12727;49.934;8.656;2024-03-17T01:20:57;4.82;;;3.13;;
24559;SDS011;12727;49.934;8.656;2024-03-17T01:23:24;4.47;;;2.80;;
24559;SDS011;12727;49.934;8.656;2024-03-17T01:25:50;9.10;;;3.28;;
24559;SDS011;12727;49.934;8.656;2024-03-17T01:28:15;5.70;;;3.40;;
24559;SDS011;12727;49.934;8.656;2024-03-17T01:30:41;7.70;;;2.88;;
24559;SDS011;12727;49.934;8.656;2024-03-17T01:33:06;6.45;;;3.17;;
24559;SDS011;12727;49.934;8.656;2024-03-17T01:35:32;5.32;;;2.88;;
24559;SDS011;12727;49.934;8.656;2024-03-17T01:37:58;4.43;;;2.63;;
24559;SDS011;12727;49.934;8.656;2024-03-17T01:40:24;6.07;;;3.10;;
24559;SDS011;12727;49.934;8.656;2024-03-17T01:42:49;5.82;;;3.00;;
24559;SDS011;12727;49.934;8.656;2024-03-17T01:47:51;5.78;;;3.25;;
24559;SDS011;12727;49.934;8.656;2024-03-17T01:50:18;5.43;;;3.17;;
24559;SDS011;12727;49.934;8.656;2024-03-17T01:52:49;7.20;;;3.78;;
24559;SDS011;12727;49.934;8.656;2024-03-17T01:55:22;10.20;;;6.07;;
24559;SDS011;12727;49.934;8.656;2024-03-17T01:57:49;11.00;;;6.07;;
24559;SDS011;12727;49.934;8.656;2024-03-17T02:00:15;11.70;;;4.90;;
24559;SDS011;12727;49.934;8.656;2024-03-17T02:02:41;11.85;;;5.32;;
24559;SDS011;12727;49.934;8.656;2024-03-17T02:05:06;8.70;;;3.90;;
24559;SDS011;12727;49.934;8.656;2024-03-17T02:07:32;9.50;;;3.83;;
24559;SDS011;12727;49.934;8.656;2024-03-17T02:09:58;5.22;;;4.07;;
24559;SDS011;12727;49.934;8.656;2024-03-17T02:12:23;6.30;;;3.90;;
24559;SDS011;12727;49.934;8.656;2024-03-17T02:14:49;7.15;;;3.03;;
24559;SDS011;12727;49.934;8.656;2024-03-17T02:17:15;5.45;;;2.95;;
24559;SDS011;12727;49.934;8.656;2024-03-17T02:19:41;4.97;;;3.00;;
24559;SDS011;12727;49.934;8.656;2024-03-17T02:22:16;5.45;;;3.10;;
24559;SDS011;12727;49.934;8.656;2024-03-17T02:24:42;7.68;;;3.15;;
24559;SDS011;12727;49.934;8.656;2024-03-17T02:27:08;4.85;;;3.00;;
24559;SDS011;12727;49.934;8.656;2024-03-17T02:29:34;6.30;;;2.80;;
24559;SDS011;12727;49.934;8.656;2024-03-17T02:32:01;6.38;;;3.15;;
24559;SDS011;12727;49.934;8.656;2024-03-17T02:34:31;6.57;;;2.90;;
24559;SDS011;12727;49.934;8.656;2024-03-17T02:36:58;8.02;;;3.35;;
24559;SDS011;12727;49.934;8.656;2024-03-17T02:39:23;3.67;;;2.78;;
24559;SDS011;12727;49.934;8.656;2024-03-17T02:42:05;7.38;;;3.15;;
24559;SDS011;12727;49.934;8.656;2024-03-17T02:44:33;5.80;;;3.20;;
24559;SDS011;12727;49.934;8.656;2024-03-17T02:46:59;5.55;;;3.22;;
24559;SDS011;12727;49.934;8.656;2024-03-17T02:49:26;4.65;;;3.40;;
24559;SDS011;12727;49.934;8.656;2024-03-17T02:51:55;5.22;;;3.58;;
24559;SDS011;12727;49.934;8.656;2024-03-17T02:54:21;5.40;;;3.10;;
24559;SDS011;12727;49.934;8.656;2024-03-17T02:56:47;6.93;;;3.30;;
24559;SDS011;12727;49.934;8.656;2024-03-17T02:59:16;5.63;;;3.28;;
24559;SDS011;12727;49.934;8.656;2024-03-17T03:01:42;5.45;;;3.20;;
24559;SDS011;12727;49.934;8.656;2024-03-17T03:04:08;5.70;;;3.90;;
24559;SDS011;12727;49.934;8.656;2024-03-17T03:06:33;4.18;;;3.15;;
24559;SDS011;12727;49.934;8.656;2024-03-17T03:08:59;14.70;;;7.65;;
24559;SDS011;12727;49.934;8.656;2024-03-17T03:11:25;5.05;;;3.28;;
24559;SDS011;12727;49.934;8.656;2024-03-17T03:13:50;3.88;;;2.83;;
24559;SDS011;12727;49.934;8.656;2024-03-17T03:16:16;5.18;;;3.00;;
24559;SDS011;12727;49.934;8.656;2024-03-17T03:18:43;8.23;;;3.20;;
24559;SDS011;12727;49.934;8.656;2024-03-17T03:21:10;5.60;;;3.47;;
24559;SDS011;12727;49.934;8.656;2024-03-17T03:23:36;6.60;;;4.63;;
24559;SDS011;12727;49.934;8.656;2024-03-17T03:26:02;6.85;;;4.60;;
24559;SDS011;12727;49.934;8.656;2024-03-17T03:28:30;11.68;;;4.95;;
24559;SDS011;12727;49.934;8.656;2024-03-17T03:30:57;7.85;;;4.70;;
24559;SDS011;12727;49.934;8.656;2024-03-17T03:33:23;9.95;;;5.10;;
24559;SDS011;12727;49.934;8.656;2024-03-17T03:35:49;8.05;;;5.22;;
24559;SDS011;12727;49.934;8.656;2024-03-17T03:38:16;12.15;;;6.90;;
24559;SDS011;12727;49.934;8.656;2024-03-17T03:40:42;10.70;;;5.10;;
24559;SDS011;12727;49.934;8.656;2024-03-17T03:43:09;9.80;;;5.15;;
24559;SDS011;12727;49.934;8.656;2024-03-17T03:45:35;10.73;;;5.78;;
24559;SDS011;12727;49.934;8.656;2024-03-17T03:48:02;9.23;;;5.80;;
24559;SDS011;12727;49.934;8.656;2024-03-17T03:50:28;10.00;;;5.03;;
24559;SDS011;12727;49.934;8.656;2024-03-17T03:52:54;6.05;;;3.95;;
24559;SDS011;12727;49.934;8.656;2024-03-17T03:55:20;6.97;;;4.10;;
24559;SDS011;12727;49.934;8.656;2024-03-17T03:57:46;5.32;;;3.78;;
24559;SDS011;12727;49.934;8.656;2024-03-17T04:00:15;6.05;;;3.45;;
24559;SDS011;12727;49.934;8.656;2024-03-17T04:02:44;7.65;;;3.60;;
24559;SDS011;12727;49.934;8.656;2024-03-17T04:05:09;7.07;;;4.18;;
24559;SDS011;12727;49.934;8.656;2024-03-17T04:07:38;6.85;;;4.00;;
24559;SDS011;12727;49.934;8.656;2024-03-17T04:10:04;5.93;;;4.00;;
24559;SDS011;12727;49.934;8.656;2024-03-17T04:12:31;9.25;;;4.15;;
24559;SDS011;12727;49.934;8.656;2024-03-17T04:14:57;6.47;;;4.28;;
24559;SDS011;12727;49.934;8.656;2024-03-17T04:17:22;6.35;;;4.40;;
24559;SDS011;12727;49.934;8.656;2024-03-17T04:19:49;6.03;;;4.18;;
24559;SDS011;12727;49.934;8.656;2024-03-17T04:22:15;5.10;;;3.78;;
24559;SDS011;12727;49.934;8.656;2024-03-17T04:24:42;7.63;;;3.50;;
24559;SDS011;12727;49.934;8.656;2024-03-17T04:27:08;4.90;;;3.50;;
24559;SDS011;12727;49.934;8.656;2024-03-17T04:29:34;6.95;;;4.45;;
24559;SDS011;12727;49.934;8.656;2024-03-17T04:32:00;7.53;;;4.15;;
24559;SDS011;12727;49.934;8.656;2024-03-17T04:34:26;5.55;;;3.63;;
24559;SDS011;12727;49.934;8.656;2024-03-17T04:36:52;9.15;;;4.22;;
24559;SDS011;12727;49.934;8.656;2024-03-17T04:39:18;7.05;;;3.65;;
24559;SDS011;12727;49.934;8.656;2024-03-17T04:41:44;5.72;;;4.07;;
24559;SDS011;12727;49.934;8.656;2024-03-17T04:44:10;6.32;;;3.90;;
24559;SDS011;12727;49.934;8.656;2024-03-17T04:46:36;6.43;;;3.90;;
24559;SDS011;12727;49.934;8.656;2024-03-17T04:49:01;6.78;;;3.90;;
24559;SDS011;12727;49.934;8.656;2024-03-17T04:51:28;9.65;;;3.85;;
24559;SDS011;12727;49.934;8.656;2024-03-17T04:53:54;7.95;;;4.40;;
24559;SDS011;12727;49.934;8.656;2024-03-17T04:56:20;7.40;;;4.15;;
24559;SDS011;12727;49.934;8.656;2024-03-17T04:58:46;10.30;;;4.63;;
24559;SDS011;12727;49.934;8.656;2024-03-17T05:01:11;9.05;;;5.00;;
24559;SDS011;12727;49.934;8.656;2024-03-17T05:03:38;5.93;;;3.72;;
24559;SDS011;12727;49.934;8.656;2024-03-17T05:06:04;6.50;;;3.85;;
24559;SDS011;12727;49.934;8.656;2024-03-17T05:08:31;5.13;;;3.50;;
24559;SDS011;12727;49.934;8.656;2024-03-17T05:13:30;7.22;;;3.22;;
24559;SDS011;12727;49.934;8.656;2024-03-17T05:15:56;4.70;;;3.03;;
24559;SDS011;12727;49.934;8.656;2024-03-17T05:18:22;6.38;;;3.50;;
24559;SDS011;12727;49.934;8.656;2024-03-17T05:20:57;6.20;;;3.50;;
24559;SDS011;12727;49.934;8.656;2024-03-17T05:23:27;7.95;;;4.07;;
24559;SDS011;12727;49.934;8.656;2024-03-17T05:25:54;8.13;;;3.58;;
24559;SDS011;12727;49.934;8.656;2024-03-17T05:28:21;7.45;;;4.35;;
24559;SDS011;12727;49.934;8.656;2024-03-17T05:30:46;10.18;;;5.10;;
24559;SDS011;12727;49.934;8.656;2024-03-17T05:33:13;7.63;;;4.45;;
24559;SDS011;12727;49.934;8.656;2024-03-17T05:35:39;6.57;;;4.03;;
24559;SDS011;12727;49.934;8.656;2024-03-17T05:38:04;7.53;;;4.13;;
24559;SDS011;12727;49.934;8.656;2024-03-17T05:40:30;9.20;;;4.13;;
24559;SDS011;12727;49.934;8.656;2024-03-17T05:42:56;8.90;;;4.35;;
24559;SDS011;12727;49.934;8.656;2024-03-17T05:45:21;7.60;;;4.05;;
24559;SDS011;12727;49.934;8.656;2024-03-17T05:47:49;6.05;;;4.07;;
24559;SDS011;12727;49.934;8.656;2024-03-17T05:50:15;6.18;;;4.35;;
24559;SDS011;12727;49.934;8.656;2024-03-17T05:52:41;7.45;;;4.10;;
24559;SDS011;12727;49.934;8.656;2024-03-17T05:55:06;6.63;;;3.88;;
24559;SDS011;12727;49.934;8.656;2024-03-17T05:57:32;6.18;;;3.88;;
24559;SDS011;12727;49.934;8.656;2024-03-17T05:59:58;7.88;;;3.83;;
24559;SDS011;12727;49.934;8.656;2024-03-17T06:02:23;6.78;;;4.10;;
24559;SDS011;12727;49.934;8.656;2024-03-17T06:04:49;7.32;;;4.43;;
24559;SDS011;12727;49.934;8.656;2024-03-17T06:07:14;6.05;;;4.60;;
24559;SDS011;12727;49.934;8.656;2024-03-17T06:09:40;8.35;;;5.05;;
24559;SDS011;12727;49.934;8.656;2024-03-17T06:12:06;7.20;;;4.75;;
24559;SDS011;12727;49.934;8.656;2024-03-17T06:14:31;6.68;;;4.18;;
24559;SDS011;12727;49.934;8.656;2024-03-17T06:16:59;9.32;;;5.15;;
24559;SDS011;12727;49.934;8.656;2024-03-17T06:19:24;6.63;;;4.68;;
24559;SDS011;12727;49.934;8.656;2024-03-17T06:21:50;8.48;;;4.28;;
24559;SDS011;12727;49.934;8.656;2024-03-17T06:24:16;8.68;;;4.80;;
24559;SDS011;12727;49.934;8.656;2024-03-17T06:26:42;7.50;;;4.50;;
24559;SDS011;12727;49.934;8.656;2024-03-17T06:29:07;5.93;;;4.53;;
24559;SDS011;12727;49.934;8.656;2024-03-17T06:31:33;6.03;;;4.47;;
24559;SDS011;12727;49.934;8.656;2024-03-17T06:33:58;6.40;;;4.68;;
24559;SDS011;12727;49.934;8.656;2024-03-17T06:36:24;8.10;;;5.13;;
24559;SDS011;12727;49.934;8.656;2024-03-17T06:38:50;6.40;;;4.40;;
24559;SDS011;12727;49.934;8.656;2024-03-17T06:41:16;7.97;;;5.18;;
24559;SDS011;12727;49.934;8.656;2024-03-17T06:43:42;6.13;;;4.30;;
24559;SDS011;12727;49.934;8.656;2024-03-17T06:46:08;9.35;;;4.75;;
24559;SDS011;12727;49.934;8.656;2024-03-17T06:48:34;6.10;;;4.47;;
24559;SDS011;12727;49.934;8.656;2024-03-17T06:51:00;6.47;;;4.80;;
24559;SDS011;12727;49.934;8.656;2024-03-17T06:53:26;6.85;;;4.72;;
24559;SDS011;12727;49.934;8.656;2024-03-17T06:55:52;7.00;;;5.03;;
24559;SDS011;12727;49.934;8.656;2024-03-17T06:58:19;7.90;;;4.70;;
24559;SDS011;12727;49.934;8.656;2024-03-17T07:00:57;8.25;;;4.10;;
24559;SDS011;12727;49.934;8.656;2024-03-17T07:03:33;7.32;;;4.25;;
24559;SDS011;12727;49.934;8.656;2024-03-17T07:05:59;6.30;;;4.00;;
24559;SDS011;12727;49.934;8.656;2024-03-17T07:08:27;5.53;;;4.07;;
24559;SDS011;12727;49.934;8.656;2024-03-17T07:13:21;5.40;;;3.53;;
24559;SDS011;12727;49.934;8.656;2024-03-17T07:15:47;6.25;;;4.18;;
24559;SDS011;12727;49.934;8.656;2024-03-17T07:18:12;7.70;;;4.72;;
24559;SDS011;12727;49.934;8.656;2024-03-17T07:20:38;4.45;;;3.70;;
24559;SDS011;12727;49.934;8.656;2024-03-17T07:23:04;7.70;;;3.83;;
24559;SDS011;12727;49.934;8.656;2024-03-17T07:25:30;6.55;;;3.75;;
24559;SDS011;12727;49.934;8.656;2024-03-17T07:27:55;6.25;;;3.58;;
24559;SDS011;12727;49.934;8.656;2024-03-17T07:30:21;7.65;;;4.05;;
24559;SDS011;12727;49.934;8.656;2024-03-17T07:32:47;5.40;;;3.40;;
24559;SDS011;12727;49.934;8.656;2024-03-17T07:35:13;5.90;;;3.63;;
24559;SDS011;12727;49.934;8.656;2024-03-17T07:37:39;6.32;;;3.40;;
24559;SDS011;12727;49.934;8.656;2024-03-17T07:40:05;3.90;;;2.63;;
24559;SDS011;12727;49.934;8.656;2024-03-17T07:42:35;6.38;;;3.22;;
24559;SDS011;12727;49.934;8.656;2024-03-17T07:45:01;6.18;;;3.30;;
24559;SDS011;12727;49.934;8.656;2024-03-17T07:47:27;3.80;;;2.60;;
24559;SDS011;12727;49.934;8.656;2024-03-17T07:50:00;4.60;;;2.38;;
24559;SDS011;12727;49.934;8.656;2024-03-17T07:52:30;4.32;;;2.38;;
24559;SDS011;12727;49.934;8.656;2024-03-17T07:54:56;4.88;;;2.65;;
24559;SDS011;12727;49.934;8.656;2024-03-17T07:57:22;3.53;;;2.47;;
24559;SDS011;12727;49.934;8.656;2024-03-17T07:59:51;7.13;;;2.40;;
24559;SDS011;12727;49.934;8.656;2024-03-17T08:02:17;3.83;;;2.10;;
24559;SDS011;12727;49.934;8.656;2024-03-17T08:04:42;2.75;;;1.80;;
24559;SDS011;12727;49.934;8.656;2024-03-17T08:07:10;5.45;;;2.17;;
24559;SDS011;12727;49.934;8.656;2024-03-17T08:09:36;2.78;;;2.00;;
24559;SDS011;12727;49.934;8.656;2024-03-17T08:12:01;3.40;;;2.03;;
24559;SDS011;12727;49.934;8.656;2024-03-17T08:14:29;3.17;;;2.03;;
24559;SDS011;12727;49.934;8.656;2024-03-17T08:16:55;2.80;;;1.60;;
24559;SDS011;12727;49.934;8.656;2024-03-17T08:19:21;3.70;;;1.75;;
24559;SDS011;12727;49.934;8.656;2024-03-17T08:21:46;2.47;;;1.58;;
24559;SDS011;12727;49.934;8.656;2024-03-17T08:24:12;5.32;;;1.90;;
24559;SDS011;12727;49.934;8.656;2024-03-17T08:26:38;2.78;;;1.70;;
24559;SDS011;12727;49.934;8.656;2024-03-17T08:29:05;2.38;;;1.50;;
24559;SDS011;12727;49.934;8.656;2024-03-17T08:31:31;3.72;;;1.30;;
24559;SDS011;12727;49.934;8.656;2024-03-17T08:33:58;2.95;;;1.65;;
24559;SDS011;12727;49.934;8.656;2024-03-17T08:36:23;3.60;;;1.75;;
24559;SDS011;12727;49.934;8.656;2024-03-17T08:38:49;3.58;;;1.52;;
24559;SDS011;12727;49.934;8.656;2024-03-17T08:41:15;4.25;;;1.67;;
24559;SDS011;12727;49.934;8.656;2024-03-17T08:43:41;5.30;;;2.53;;
24559;SDS011;12727;49.934;8.656;2024-03-17T08:46:08;4.50;;;2.20;;
24559;SDS011;12727;49.934;8.656;2024-03-17T08:48:36;3.17;;;1.95;;
24559;SDS011;12727;49.934;8.656;2024-03-17T08:51:03;6.40;;;2.47;;
24559;SDS011;12727;49.934;8.656;2024-03-17T08:53:30;8.75;;;4.40;;
24559;SDS011;12727;49.934;8.656;2024-03-17T08:55:56;4.85;;;2.30;;
24559;SDS011;12727;49.934;8.656;2024-03-17T08:58:23;3.90;;;1.88;;
24559;SDS011;12727;49.934;8.656;2024-03-17T09:00:49;4.88;;;2.35;;
24559;SDS011;12727;49.934;8.656;2024-03-17T09:03:16;5.03;;;1.88;;
24559;SDS011;12727;49.934;8.656;2024-03-17T09:05:42;2.75;;;1.70;;
24559;SDS011;12727;49.934;8.656;2024-03-17T09:08:20;3.90;;;1.98;;
24559;SDS011;12727;49.934;8.656;2024-03-17T09:10:47;6.05;;;1.90;;
24559;SDS011;12727;49.934;8.656;2024-03-17T09:13:15;6.28;;;2.88;;
24559;SDS011;12727;49.934;8.656;2024-03-17T09:18:20;3.65;;;1.85;;
24559;SDS011;12727;49.934;8.656;2024-03-17T09:20:46;3.47;;;2.00;;
24559;SDS011;12727;49.934;8.656;2024-03-17T09:23:19;3.88;;;1.70;;
24559;SDS011;12727;49.934;8.656;2024-03-17T09:25:54;6.30;;;2.88;;
24559;SDS011;12727;49.934;8.656;2024-03-17T09:28:23;4.68;;;1.58;;
24559;SDS011;12727;49.934;8.656;2024-03-17T09:30:49;3.63;;;1.65;;
24559;SDS011;12727;49.934;8.656;2024-03-17T09:33:17;2.35;;;1.25;;
24559;SDS011;12727;49.934;8.656;2024-03-17T09:35:44;2.03;;;1.55;;
24559;SDS011;12727;49.934;8.656;2024-03-17T09:38:17;4.35;;;2.25;;
24559;SDS011;12727;49.934;8.656;2024-03-17T09:40:45;2.80;;;2.00;;
24559;SDS011;12727;49.934;8.656;2024-03-17T09:43:12;4.25;;;1.63;;
24559;SDS011;12727;49.934;8.656;2024-03-17T09:45:38;2.67;;;1.90;;
24559;SDS011;12727;49.934;8.656;2024-03-17T09:48:03;3.10;;;1.70;;
24559;SDS011;12727;49.934;8.656;2024-03-17T09:50:29;2.63;;;1.70;;
24559;SDS011;12727;49.934;8.656;2024-03-17T09:52:56;3.83;;;2.20;;
24559;SDS011;12727;49.934;8.656;2024-03-17T09:55:22;4.35;;;1.90;;
24559;SDS011;12727;49.934;8.656;2024-03-17T09:57:49;3.28;;;1.92;;
24559;SDS011;12727;49.934;8.656;2024-03-17T10:00:14;4.55;;;2.30;;
24559;SDS011;12727;49.934;8.656;2024-03-17T10:02:41;3.28;;;1.75;;
24559;SDS011;12727;49.934;8.656;2024-03-17T10:05:17;4.32;;;2.80;;
24559;SDS011;12727;49.934;8.656;2024-03-17T10:07:44;5.32;;;1.77;;
24559;SDS011;12727;49.934;8.656;2024-03-17T10:10:10;2.65;;;1.58;;
24559;SDS011;12727;49.934;8.656;2024-03-17T10:12:41;4.55;;;2.20;;
24559;SDS011;12727;49.934;8.656;2024-03-17T10:15:08;2.72;;;1.67;;
24559;SDS011;12727;49.934;8.656;2024-03-17T10:17:36;2.35;;;1.58;;
24559;SDS011;12727;49.934;8.656;2024-03-17T10:20:12;2.67;;;1.50;;
24559;SDS011;12727;49.934;8.656;2024-03-17T10:23:04;4.32;;;2.05;;
24559;SDS011;12727;49.934;8.656;2024-03-17T10:25:34;2.92;;;1.83;;
24559;SDS011;12727;49.934;8.656;2024-03-17T10:28:04;3.65;;;2.00;;
24559;SDS011;12727;49.934;8.656;2024-03-17T10:30:39;2.05;;;1.75;;
24559;SDS011;12727;49.934;8.656;2024-03-17T10:33:05;3.22;;;1.80;;
24559;SDS011;12727;49.934;8.656;2024-03-17T10:35:35;4.32;;;1.52;;
24559;SDS011;12727;49.934;8.656;2024-03-17T10:38:06;3.85;;;1.70;;
24559;SDS011;12727;49.934;8.656;2024-03-17T10:40:33;4.75;;;1.80;;
24559;SDS011;12727;49.934;8.656;2024-03-17T10:43:01;2.25;;;1.58;;
24559;SDS011;12727;49.934;8.656;2024-03-17T10:45:27;5.68;;;2.28;;
24559;SDS011;12727;49.934;8.656;2024-03-17T10:48:00;3.25;;;1.98;;
24559;SDS011;12727;49.934;8.656;2024-03-17T10:50:28;3.42;;;2.25;;
24559;SDS011;12727;49.934;8.656;2024-03-17T10:52:58;4.47;;;2.70;;
24559;SDS011;12727;49.934;8.656;2024-03-17T10:55:28;3.53;;;2.17;;
24559;SDS011;12727;49.934;8.656;2024-03-17T10:57:59;3.15;;;2.22;;
24559;SDS011;12727;49.934;8.656;2024-03-17T11:00:33;4.95;;;2.63;;
24559;SDS011;12727;49.934;8.656;2024-03-17T11:03:01;3.63;;;2.33;;
24559;SDS011;12727;49.934;8.656;2024-03-17T11:05:27;4.22;;;2.22;;
24559;SDS011;12727;49.934;8.656;2024-03-17T11:08:01;3.33;;;2.15;;
24559;SDS011;12727;49.934;8.656;2024-03-17T11:10:28;3.22;;;2.10;;
24559;SDS011;12727;49.934;8.656;2024-03-17T11:12:59;3.10;;;1.95;;
24559;SDS011;12727;49.934;8.656;2024-03-17T11:18:40;3.85;;;2.30;;
24559;SDS011;12727;49.934;8.656;2024-03-17T11:23:35;4.57;;;2.70;;
24559;SDS011;12727;49.934;8.656;2024-03-17T11:26:05;3.55;;;2.58;;
24559;SDS011;12727;49.934;8.656;2024-03-17T11:34:06;4.32;;;2.60;;
24559;SDS011;12727;49.934;8.656;2024-03-17T11:36:51;3.80;;;2.45;;
24559;SDS011;12727;49.934;8.656;2024-03-17T11:39:18;6.53;;;2.60;;
24559;SDS011;12727;49.934;8.656;2024-03-17T11:41:49;5.88;;;3.08;;
24559;SDS011;12727;49.934;8.656;2024-03-17T11:51:56;6.93;;;3.50;;
24559;SDS011;12727;49.934;8.656;2024-03-17T11:54:26;5.78;;;3.50;;
24559;SDS011;12727;49.934;8.656;2024-03-17T11:56:55;5.45;;;4.07;;
24559;SDS011;12727;49.934;8.656;2024-03-17T12:01:54;4.68;;;3.63;;
24559;SDS011;12727;49.934;8.656;2024-03-17T12:04:20;7.43;;;3.72;;
24559;SDS011;12727;49.934;8.656;2024-03-17T12:06:49;7.85;;;3.80;;
24559;SDS011;12727;49.934;8.656;2024-03-17T12:09:27;5.03;;;3.40;;
24559;SDS011;12727;49.934;8.656;2024-03-17T12:12:01;5.45;;;3.80;;
24559;SDS011;12727;49.934;8.656;2024-03-17T12:14:29;5.53;;;3.50;;
24559;SDS011;12727;49.934;8.656;2024-03-17T12:16:56;8.55;;;4.18;;
24559;SDS011;12727;49.934;8.656;2024-03-17T12:19:24;5.43;;;3.78;;
24559;SDS011;12727;49.934;8.656;2024-03-17T12:21:54;7.47;;;3.92;;
24559;SDS011;12727;49.934;8.656;2024-03-17T12:24:21;6.88;;;4.28;;
24559;SDS011;12727;49.934;8.656;2024-03-17T12:26:48;9.25;;;4.38;;
24559;SDS011;12727;49.934;8.656;2024-03-17T12:29:28;8.50;;;4.18;;
24559;SDS011;12727;49.934;8.656;2024-03-17T12:32:00;7.90;;;4.30;;
24559;SDS011;12727;49.934;8.656;2024-03-17T12:34:28;6.53;;;4.07;;
24559;SDS011;12727;49.934;8.656;2024-03-17T12:36:55;6.93;;;4.72;;
24559;SDS011;12727;49.934;8.656;2024-03-17T12:39:23;6.57;;;4.43;;
24559;SDS011;12727;49.934;8.656;2024-03-17T12:44:37;6.80;;;4.35;;
24559;SDS011;12727;49.934;8.656;2024-03-17T12:47:08;7.00;;;4.63;;
24559;SDS011;12727;49.934;8.656;2024-03-17T12:49:43;6.53;;;4.20;;
24559;SDS011;12727;49.934;8.656;2024-03-17T12:52:25;5.40;;;3.70;;
24559;SDS011;12727;49.934;8.656;2024-03-17T12:57:46;9.35;;;5.25;;
24559;SDS011;12727;49.934;8.656;2024-03-17T13:00:32;7.47;;;5.00;;
24559;SDS011;12727;49.934;8.656;2024-03-17T13:03:01;6.38;;;5.05;;
24559;SDS011;12727;49.934;8.656;2024-03-17T13:05:28;7.10;;;4.80;;
24559;SDS011;12727;49.934;8.656;2024-03-17T13:07:54;7.80;;;5.15;;
24559;SDS011;12727;49.934;8.656;2024-03-17T13:10:21;7.10;;;4.90;;
24559;SDS011;12727;49.934;8.656;2024-03-17T13:12:48;7.72;;;4.90;;
24559;SDS011;12727;49.934;8.656;2024-03-17T13:15:22;7.88;;;5.20;;
24559;SDS011;12727;49.934;8.656;2024-03-17T13:17:48;7.18;;;5.30;;
24559;SDS011;12727;49.934;8.656;2024-03-17T13:20:14;6.38;;;4.53;;
24559;SDS011;12727;49.934;8.656;2024-03-17T13:22:41;8.98;;;5.13;;
24559;SDS011;12727;49.934;8.656;2024-03-17T13:25:11;6.55;;;5.20;;
24559;SDS011;12727;49.934;8.656;2024-03-17T13:27:50;7.63;;;5.22;;
24559;SDS011;12727;49.934;8.656;2024-03-17T13:30:16;10.30;;;5.20;;
24559;SDS011;12727;49.934;8.656;2024-03-17T13:32:44;8.82;;;5.28;;
24559;SDS011;12727;49.934;8.656;2024-03-17T13:35:19;8.15;;;5.43;;
24559;SDS011;12727;49.934;8.656;2024-03-17T13:37:45;7.43;;;4.95;;
24559;SDS011;12727;49.934;8.656;2024-03-17T13:40:12;7.40;;;5.10;;
24559;SDS011;12727;49.934;8.656;2024-03-17T13:42:41;7.50;;;5.82;;
24559;SDS011;12727;49.934;8.656;2024-03-17T13:45:09;8.40;;;5.15;;
24559;SDS011;12727;49.934;8.656;2024-03-17T13:47:36;9.43;;;5.88;;
24559;SDS011;12727;49.934;8.656;2024-03-17T13:50:02;9.45;;;5.55;;
24559;SDS011;12727;49.934;8.656;2024-03-17T13:52:31;9.95;;;5.60;;
24559;SDS011;12727;49.934;8.656;2024-03-17T13:54:57;9.23;;;5.68;;
24559;SDS011;12727;49.934;8.656;2024-03-17T13:57:23;7.50;;;5.45;;
24559;SDS011;12727;49.934;8.656;2024-03-17T13:59:50;8.07;;;5.57;;
24559;SDS011;12727;49.934;8.656;2024-03-17T14:02:17;7.07;;;5.13;;
24559;SDS011;12727;49.934;8.656;2024-03-17T14:04:43;9.13;;;5.68;;
24559;SDS011;12727;49.934;8.656;2024-03-17T14:07:09;7.05;;;5.45;;
24559;SDS011;12727;49.934;8.656;2024-03-17T14:09:34;7.03;;;5.50;;
24559;SDS011;12727;49.934;8.656;2024-03-17T14:12:00;8.45;;;5.72;;
24559;SDS011;12727;49.934;8.656;2024-03-17T14:14:26;7.15;;;5.70;;
24559;SDS011;12727;49.934;8.656;2024-03-17T14:16:51;7.32;;;5.25;;
24559;SDS011;12727;49.934;8.656;2024-03-17T14:19:20;7.90;;;5.35;;
24559;SDS011;12727;49.934;8.656;2024-03-17T14:21:45;7.03;;;5.43;;
24559;SDS011;12727;49.934;8.656;2024-03-17T14:24:12;8.43;;;5.55;;
24559;SDS011;12727;49.934;8.656;2024-03-17T14:26:37;9.32;;;5.85;;
24559;SDS011;12727;49.934;8.656;2024-03-17T14:29:03;7.28;;;5.00;;
24559;SDS011;12727;49.934;8.656;2024-03-17T14:31:32;7.55;;;4.88;;
24559;SDS011;12727;49.934;8.656;2024-03-17T14:34:03;8.80;;;5.38;;
24559;SDS011;12727;49.934;8.656;2024-03-17T14:36:32;7.68;;;5.20;;
24559;SDS011;12727;49.934;8.656;2024-03-17T14:39:01;8.20;;;5.60;;
24559;SDS011;12727;49.934;8.656;2024-03-17T14:41:30;7.28;;;5.07;;
24559;SDS011;12727;49.934;8.656;2024-03-17T14:43:56;6.55;;;4.78;;
24559;SDS011;12727;49.934;8.656;2024-03-17T14:46:25;6.60;;;4.93;;
24559;SDS011;12727;49.934;8.656;2024-03-17T14:48:52;7.15;;;5.25;;
24559;SDS011;12727;49.934;8.656;2024-03-17T14:51:18;8.00;;;5.47;;
24559;SDS011;12727;49.934;8.656;2024-03-17T14:53:46;8.18;;;5.07;;
24559;SDS011;12727;49.934;8.656;2024-03-17T14:56:17;7.70;;;5.25;;
24559;SDS011;12727;49.934;8.656;2024-03-17T14:58:43;8.07;;;5.15;;
24559;SDS011;12727;49.934;8.656;2024-03-17T15:01:11;7.05;;;5.32;;
24559;SDS011;12727;49.934;8.656;2024-03-17T15:03:37;7.75;;;5.07;;
24559;SDS011;12727;49.934;8.656;2024-03-17T15:06:04;8.65;;;5.53;;
24559;SDS011;12727;49.934;8.656;2024-03-17T15:08:34;7.38;;;5.25;;
24559;SDS011;12727;49.934;8.656;2024-03-17T15:11:00;7.72;;;5.20;;
24559;SDS011;12727;49.934;8.656;2024-03-17T15:13:25;7.65;;;5.85;;
24559;SDS011;12727;49.934;8.656;2024-03-17T15:15:51;8.00;;;5.32;;
24559;SDS011;12727;49.934;8.656;2024-03-17T15:18:19;7.30;;;5.40;;
24559;SDS011;12727;49.934;8.656;2024-03-17T15:20:51;7.80;;;5.03;;
24559;SDS011;12727;49.934;8.656;2024-03-17T15:23:18;8.23;;;5.45;;
24559;SDS011;12727;49.934;8.656;2024-03-17T15:25:43;8.27;;;4.70;;